Terminal Aerodrome Forecast
Issued by NWS

Home | Current Version | Previous Version | Text Only | Print | Product List | Glossary On
Versions: 1 2 3 4 5 6
000
FTUS43 KGRB 212339
TAFOSH
TAF
KOSH 212339Z 2200/2224 15006KT P6SM VCSH SCT050 OVC090
     FM220500 14006KT 5SM -SHRA BR VCTS OVC030CB
     FM221100 10006KT 3SM BR OVC008
     FM221500 04006KT P6SM BKN010
     FM221900 07005KT P6SM SCT025 BKN050
     FM222300 10006KT P6SM BKN050=

USA.gov is the U.S. government's official web portal to all federal, state and local government web resources and services.